createdAt,value
2022-11-20T00:00:01.341Z,0.00
2022-11-20T00:10:01.011Z,0.23
2022-11-20T00:20:01.006Z,0.00
2022-11-20T00:30:00.138Z,0.34
2022-11-20T00:40:01.051Z,0.00
2022-11-20T00:50:01.024Z,0.23
2022-11-20T01:00:01.076Z,0.23
2022-11-20T01:10:00.146Z,0.23
2022-11-20T01:20:01.001Z,0.00
2022-11-20T01:30:01.357Z,0.23
2022-11-20T01:40:01.241Z,0.23
2022-11-20T01:50:01.270Z,0.23
2022-11-20T02:00:01.158Z,0.23
2022-11-20T02:10:01.169Z,0.23
2022-11-20T02:20:01.161Z,0.23
2022-11-20T02:30:00.228Z,0.23
2022-11-20T02:40:01.228Z,0.00
2022-11-20T02:50:00.130Z,0.11
2022-11-20T03:00:01.272Z,0.11
2022-11-20T03:10:01.211Z,0.11
2022-11-20T03:20:01.330Z,0.11
2022-11-20T03:30:01.238Z,0.11
2022-11-20T03:40:01.176Z,0.11
2022-11-20T03:50:01.028Z,0.00
2022-11-20T04:00:01.278Z,0.11
2022-11-20T04:10:01.248Z,0.11
2022-11-20T04:20:01.017Z,0.00
2022-11-20T04:30:01.333Z,0.00
2022-11-20T04:40:00.776Z,0.11
2022-11-20T04:50:01.199Z,0.11
2022-11-20T05:00:01.269Z,0.11
2022-11-20T05:10:01.016Z,0.11
2022-11-20T05:20:01.273Z,0.11
2022-11-20T05:30:01.320Z,0.11
2022-11-20T05:40:01.146Z,0.11
2022-11-20T05:50:01.546Z,0.11
2022-11-20T06:00:01.439Z,0.11
2022-11-20T06:10:03.203Z,1.70
2022-11-20T06:20:01.752Z,8.60
2022-11-20T06:30:01.542Z,13.33
2022-11-20T06:40:00.135Z,33.33
2022-11-20T06:50:01.030Z,61.67
2022-11-20T07:00:01.074Z,108.33
2022-11-20T07:10:01.065Z,135.00
2022-11-20T07:20:02.787Z,183.33
2022-11-20T07:30:01.710Z,228.33
2022-11-20T07:40:01.426Z,288.33
2022-11-20T07:50:01.516Z,410.00
2022-11-20T08:00:04.030Z,508.33
2022-11-20T08:10:01.280Z,575.00
2022-11-20T08:20:01.524Z,635.00
2022-11-20T08:30:01.567Z,815.00
2022-11-20T08:40:02.162Z,661.67
2022-11-20T08:50:01.329Z,435.00
2022-11-20T09:10:22.473Z,1040.00
2022-11-20T09:20:00.133Z,928.33
2022-11-20T09:30:01.245Z,568.33
2022-11-20T09:40:01.291Z,900.00
2022-11-20T09:50:00.154Z,1078.33
2022-11-20T10:00:01.470Z,1070.00
2022-11-20T10:10:01.299Z,1048.33
2022-11-20T10:20:03.009Z,730.00
2022-11-20T10:30:00.162Z,668.33
2022-11-20T10:40:00.988Z,1160.00
2022-11-20T10:50:01.575Z,1923.33
2022-11-20T11:00:00.120Z,2008.33
2022-11-20T11:10:01.235Z,2506.67
2022-11-20T11:20:01.282Z,4400.00
2022-11-20T11:30:01.046Z,2380.00
2022-11-20T11:40:23.243Z,2113.33
2022-11-20T11:50:01.000Z,1505.00
2022-11-20T12:00:01.069Z,1196.67
2022-11-20T12:10:01.511Z,1098.33
2022-11-20T12:20:00.969Z,1505.00
2022-11-20T12:30:00.124Z,1140.00
2022-11-20T12:40:01.752Z,1080.00
2022-11-20T12:50:01.284Z,1180.00
2022-11-20T13:00:01.266Z,933.33
2022-11-20T13:10:00.139Z,1298.33
2022-11-20T13:20:00.162Z,1510.00
2022-11-20T13:30:01.486Z,1131.67
2022-11-20T13:40:01.563Z,1813.33
2022-11-20T13:50:01.041Z,1193.33
2022-11-20T14:00:00.249Z,635.00
2022-11-20T14:10:00.145Z,535.00
2022-11-20T14:20:03.366Z,430.00
2022-11-20T14:30:01.264Z,231.67
2022-11-20T14:40:02.879Z,116.67
2022-11-20T14:50:04.613Z,41.67
2022-11-20T15:00:01.598Z,20.00
2022-11-20T15:10:01.307Z,26.67
2022-11-20T15:20:01.555Z,16.67
2022-11-20T15:30:03.255Z,16.67
2022-11-20T15:40:00.970Z,16.67
2022-11-20T15:50:02.815Z,16.67
2022-11-20T16:00:02.366Z,16.67
2022-11-20T16:10:00.871Z,16.67
2022-11-20T16:20:01.025Z,16.67
2022-11-20T16:30:01.003Z,16.67
2022-11-20T16:40:01.400Z,16.67
2022-11-20T16:50:01.550Z,16.67
2022-11-20T17:00:02.376Z,16.67
2022-11-20T17:10:01.257Z,16.67
2022-11-20T17:20:01.097Z,16.67
2022-11-20T17:30:01.493Z,16.67
2022-11-20T17:40:01.849Z,16.67
2022-11-20T17:50:01.318Z,16.67
2022-11-20T18:00:01.018Z,0.00
2022-11-20T18:10:00.149Z,0.00
2022-11-20T18:20:27.052Z,0.00
2022-11-20T18:30:01.064Z,0.00
2022-11-20T18:40:00.151Z,0.00
2022-11-20T18:50:01.129Z,0.00
2022-11-20T19:00:06.722Z,0.00
2022-11-20T19:10:04.080Z,1.13
2022-11-20T19:20:01.131Z,0.00
2022-11-20T19:30:01.190Z,0.00
2022-11-20T19:40:01.275Z,0.00
2022-11-20T19:50:01.706Z,0.00
2022-11-20T20:00:01.876Z,0.00
2022-11-20T20:10:01.051Z,0.00
2022-11-20T20:20:01.115Z,0.00
2022-11-20T20:30:01.087Z,0.00
2022-11-20T20:40:01.244Z,0.00
2022-11-20T20:50:01.882Z,1.25
2022-11-20T21:00:01.304Z,0.00
2022-11-20T21:10:01.450Z,0.00
2022-11-20T21:20:01.104Z,0.00
2022-11-20T21:30:01.264Z,0.00
2022-11-20T21:40:00.988Z,0.00
2022-11-20T21:50:01.486Z,0.00
2022-11-20T22:00:01.309Z,0.00
2022-11-20T22:10:02.145Z,0.00
2022-11-20T22:20:00.153Z,0.00
2022-11-20T22:30:00.170Z,0.00
2022-11-20T22:40:01.056Z,0.00
2022-11-20T22:50:03.944Z,0.00
2022-11-20T23:00:00.986Z,0.00
2022-11-20T23:10:01.527Z,0.00
2022-11-20T23:20:01.000Z,0.00
2022-11-20T23:30:01.024Z,0.00
2022-11-20T23:40:02.004Z,0.00
2022-11-20T23:50:02.974Z,0.00
